createdAt,value
2018-09-14T00:01:30.239Z,2.07
2018-09-14T00:04:03.003Z,2.73
2018-09-14T00:06:36.011Z,2.30
2018-09-14T00:09:11.643Z,2.30
2018-09-14T00:11:44.362Z,2.80
2018-09-14T00:14:17.000Z,2.60
2018-09-14T00:16:49.723Z,2.70
2018-09-14T00:19:22.966Z,2.53
2018-09-14T00:21:55.774Z,3.37
2018-09-14T00:24:28.546Z,2.10
2018-09-14T00:27:01.206Z,2.60
2018-09-14T00:29:33.912Z,2.67
2018-09-14T00:32:06.810Z,2.77
2018-09-14T00:34:39.446Z,2.30
2018-09-14T00:37:12.604Z,1.87
2018-09-14T00:39:45.241Z,2.47
2018-09-14T00:42:19.033Z,2.50
2018-09-14T00:44:51.684Z,3.20
2018-09-14T00:47:24.351Z,2.10
2018-09-14T00:49:56.901Z,2.87
2018-09-14T00:52:29.509Z,2.30
2018-09-14T00:55:02.219Z,2.73
2018-09-14T00:57:35.270Z,3.07
2018-09-14T01:00:08.082Z,2.60
2018-09-14T01:02:41.539Z,2.30
2018-09-14T01:05:14.278Z,2.67
2018-09-14T01:07:46.925Z,2.27
2018-09-14T01:10:19.539Z,2.00
2018-09-14T01:12:52.530Z,2.60
2018-09-14T01:15:25.209Z,2.30
2018-09-14T01:17:59.339Z,3.07
2018-09-14T01:20:32.335Z,2.67
2018-09-14T01:23:05.072Z,2.47
2018-09-14T01:25:37.903Z,2.20
2018-09-14T01:28:10.601Z,2.73
2018-09-14T01:30:43.591Z,3.43
2018-09-14T01:33:16.916Z,2.40
2018-09-14T01:35:55.156Z,3.03
2018-09-14T01:38:27.981Z,2.77
2018-09-14T01:41:00.793Z,2.37
2018-09-14T01:43:33.553Z,2.17
2018-09-14T01:46:06.801Z,1.93
2018-09-14T01:48:39.420Z,2.57
2018-09-14T01:51:12.149Z,2.80
2018-09-14T01:53:44.860Z,2.13
2018-09-14T01:56:17.464Z,2.53
2018-09-14T01:58:51.495Z,2.70
2018-09-14T02:01:24.268Z,2.87
2018-09-14T02:03:57.063Z,3.20
2018-09-14T02:06:29.760Z,2.37
2018-09-14T02:09:03.703Z,1.93
2018-09-14T02:11:36.272Z,2.33
2018-09-14T02:14:09.921Z,1.80
2018-09-14T02:16:42.627Z,2.50
2018-09-14T02:19:15.242Z,2.90
2018-09-14T02:21:47.875Z,2.43
2018-09-14T02:24:20.489Z,2.20
2018-09-14T02:26:53.135Z,2.00
2018-09-14T02:29:25.745Z,2.23
2018-09-14T02:31:58.688Z,2.70
2018-09-14T02:34:32.094Z,2.27
2018-09-14T02:37:04.760Z,2.47
2018-09-14T02:39:37.425Z,2.10
2018-09-14T02:42:10.038Z,2.43
2018-09-14T02:44:42.644Z,1.83
2018-09-14T02:47:16.224Z,1.87
2018-09-14T02:49:49.944Z,2.23
2018-09-14T02:52:22.583Z,2.47
2018-09-14T02:54:55.638Z,1.80
2018-09-14T02:57:28.362Z,2.00
2018-09-14T03:00:02.142Z,2.60
2018-09-14T03:02:35.206Z,1.73
2018-09-14T03:05:07.821Z,2.23
2018-09-14T03:07:40.464Z,2.10
2018-09-14T03:10:15.151Z,2.27
2018-09-14T03:12:47.716Z,2.57
2018-09-14T03:15:20.296Z,2.47
2018-09-14T03:17:52.879Z,2.13
2018-09-14T03:20:25.979Z,1.83
2018-09-14T03:22:58.770Z,2.00
2018-09-14T03:25:31.848Z,2.53
2018-09-14T03:28:05.039Z,3.03
2018-09-14T03:30:37.817Z,2.23
2018-09-14T03:33:10.673Z,1.97
2018-09-14T03:35:43.897Z,2.73
2018-09-14T03:38:16.946Z,1.90
2018-09-14T03:40:50.518Z,1.80
2018-09-14T03:43:23.610Z,2.30
2018-09-14T03:45:56.493Z,2.00
2018-09-14T03:48:29.615Z,2.00
2018-09-14T03:51:04.170Z,2.03
2018-09-14T03:53:37.456Z,2.43
2018-09-14T03:56:10.366Z,3.03
2018-09-14T03:58:43.306Z,3.03
2018-09-14T04:01:16.162Z,2.20
2018-09-14T04:03:49.419Z,2.10
2018-09-14T04:06:22.940Z,2.83
2018-09-14T04:08:55.832Z,1.87
2018-09-14T04:11:30.799Z,2.43
2018-09-14T04:14:03.978Z,2.77
2018-09-14T04:16:36.850Z,2.00
2018-09-14T04:19:09.825Z,2.60
2018-09-14T04:21:42.940Z,3.10
2018-09-14T04:24:15.663Z,2.40
2018-09-14T04:26:48.600Z,2.93
2018-09-14T04:29:22.310Z,2.30
2018-09-14T04:31:55.190Z,2.93
2018-09-14T04:34:28.817Z,2.57
2018-09-14T04:37:02.980Z,2.80
2018-09-14T04:39:35.894Z,2.83
2018-09-14T04:42:13.925Z,2.33
2018-09-14T04:44:46.956Z,2.60
2018-09-14T04:47:31.551Z,2.80
2018-09-14T04:50:05.912Z,3.17
2018-09-14T04:52:46.229Z,3.30
2018-09-14T04:55:19.136Z,2.93
2018-09-14T04:57:52.112Z,3.20
2018-09-14T05:00:25.013Z,2.97
2018-09-14T05:02:58.066Z,3.83
2018-09-14T05:05:31.052Z,3.23
2018-09-14T05:08:04.404Z,2.23
2018-09-14T05:10:37.538Z,2.90
2018-09-14T05:13:10.316Z,2.60
2018-09-14T05:15:43.935Z,2.80
2018-09-14T05:18:16.855Z,3.00
2018-09-14T05:20:50.426Z,3.13
2018-09-14T05:23:23.701Z,2.90
2018-09-14T05:25:57.376Z,3.47
2018-09-14T05:28:30.399Z,2.13
2018-09-14T05:31:03.532Z,3.00
2018-09-14T05:36:25.032Z,2.87
2018-09-14T05:38:57.866Z,2.63
2018-09-14T05:41:30.694Z,2.67
2018-09-14T05:44:03.814Z,2.53
2018-09-14T05:46:36.815Z,2.53
2018-09-14T05:49:16.393Z,2.27
2018-09-14T05:51:49.297Z,2.40
2018-09-14T05:54:23.144Z,3.37
2018-09-14T05:56:55.836Z,1.97
2018-09-14T05:59:28.602Z,2.67
2018-09-14T06:02:02.162Z,2.13
2018-09-14T06:04:40.666Z,2.07
2018-09-14T06:07:13.613Z,2.00
2018-09-14T06:09:46.338Z,2.30
2018-09-14T06:12:19.247Z,2.97
2018-09-14T06:14:55.307Z,2.43
2018-09-14T06:17:29.876Z,2.53
2018-09-14T06:20:17.267Z,2.93
2018-09-14T06:22:49.977Z,2.83
2018-09-14T06:25:22.698Z,2.60
2018-09-14T06:27:55.473Z,3.23
2018-09-14T06:30:28.225Z,2.60
2018-09-14T06:33:00.875Z,3.30
2018-09-14T06:35:33.532Z,2.58
2018-09-14T06:38:06.212Z,2.70
2018-09-14T06:40:38.931Z,2.45
2018-09-14T06:43:11.793Z,2.87
2018-09-14T06:45:44.483Z,2.83
2018-09-14T06:48:17.419Z,2.53
2018-09-14T06:50:50.101Z,3.07
2018-09-14T06:53:22.958Z,3.02
2018-09-14T06:55:55.915Z,2.27
2018-09-14T06:58:28.667Z,1.95
2018-09-14T07:01:01.523Z,2.90
2018-09-14T07:03:34.389Z,2.80
2018-09-14T07:06:07.089Z,2.17
2018-09-14T07:08:39.961Z,3.83
2018-09-14T07:11:12.648Z,2.22
2018-09-14T07:13:45.680Z,1.83
2018-09-14T07:16:18.356Z,1.57
2018-09-14T07:18:51.238Z,1.93
2018-09-14T07:21:23.998Z,1.77
2018-09-14T07:23:56.745Z,2.27
2018-09-14T07:26:29.732Z,2.00
2018-09-14T07:29:02.484Z,1.65
2018-09-14T07:31:35.304Z,1.92
2018-09-14T07:34:07.968Z,2.08
2018-09-14T07:36:40.837Z,1.75
2018-09-14T07:39:13.725Z,2.17
2018-09-14T07:41:46.516Z,2.30
2018-09-14T07:44:19.236Z,2.47
2018-09-14T07:46:52.014Z,1.95
2018-09-14T07:49:24.800Z,2.00
2018-09-14T07:51:57.474Z,2.62
2018-09-14T07:54:30.247Z,2.33
2018-09-14T07:57:03.151Z,2.83
2018-09-14T07:59:36.126Z,2.98
2018-09-14T08:02:08.972Z,2.20
2018-09-14T08:04:41.682Z,2.37
2018-09-14T08:07:14.508Z,2.95
2018-09-14T08:09:47.282Z,2.47
2018-09-14T08:12:19.963Z,2.83
2018-09-14T08:14:52.592Z,2.80
2018-09-14T08:17:25.240Z,4.35
2018-09-14T08:19:58.005Z,3.45
2018-09-14T08:22:30.672Z,2.37
2018-09-14T08:25:03.466Z,2.77
2018-09-14T08:27:36.186Z,3.10
2018-09-14T08:30:08.899Z,3.55
2018-09-14T08:32:42.239Z,3.52
2018-09-14T08:35:14.951Z,3.72
2018-09-14T08:37:47.522Z,3.27
2018-09-14T08:40:20.272Z,2.90
2018-09-14T08:42:53.007Z,2.42
2018-09-14T08:45:25.584Z,3.08
2018-09-14T08:47:58.414Z,3.10
2018-09-14T08:50:31.102Z,2.42
2018-09-14T08:53:04.357Z,3.20
2018-09-14T08:55:37.684Z,3.12
2018-09-14T08:58:10.498Z,2.72
2018-09-14T09:00:43.476Z,3.08
2018-09-14T09:03:16.324Z,4.10
2018-09-14T09:05:49.090Z,3.47
2018-09-14T09:08:21.856Z,3.47
2018-09-14T09:10:54.571Z,3.80
2018-09-14T09:13:27.485Z,2.70
2018-09-14T09:16:00.285Z,3.47
2018-09-14T09:18:33.212Z,3.02
2018-09-14T09:21:06.238Z,2.77
2018-09-14T09:23:39.105Z,3.45
2018-09-14T09:26:11.932Z,3.30
2018-09-14T09:28:44.678Z,3.35
2018-09-14T09:31:17.567Z,2.25
2018-09-14T09:33:50.488Z,2.67
2018-09-14T09:36:25.091Z,3.02
2018-09-14T09:38:57.884Z,3.08
2018-09-14T09:41:30.723Z,3.65
2018-09-14T09:44:04.167Z,2.92
2018-09-14T09:46:37.172Z,2.85
2018-09-14T09:49:09.960Z,2.75
2018-09-14T09:51:43.773Z,3.05
2018-09-14T09:54:16.576Z,3.60
2018-09-14T09:56:49.649Z,2.87
2018-09-14T09:59:22.414Z,3.15
2018-09-14T10:02:00.834Z,3.12
2018-09-14T10:04:38.131Z,2.55
2018-09-14T10:07:11.022Z,3.17
2018-09-14T10:09:43.949Z,2.67
2018-09-14T10:12:17.433Z,2.87
2018-09-14T10:14:50.394Z,2.20
2018-09-14T10:17:23.318Z,1.63
2018-09-14T10:19:56.311Z,1.90
2018-09-14T10:22:29.332Z,2.17
2018-09-14T10:25:02.434Z,2.20
2018-09-14T10:27:35.363Z,2.30
2018-09-14T10:30:08.310Z,2.15
2018-09-14T10:32:41.847Z,2.22
2018-09-14T10:35:14.903Z,2.05
2018-09-14T10:37:48.052Z,2.58
2018-09-14T10:40:21.309Z,2.30
2018-09-14T10:42:54.287Z,2.30
2018-09-14T10:45:27.101Z,2.00
2018-09-14T10:48:00.106Z,2.50
2018-09-14T10:50:33.092Z,2.35
2018-09-14T10:53:06.018Z,2.52
2018-09-14T10:55:39.059Z,1.85
2018-09-14T10:58:12.093Z,2.30
2018-09-14T11:00:44.942Z,2.55
2018-09-14T11:03:18.515Z,2.08
2018-09-14T11:05:51.295Z,1.90
2018-09-14T11:08:24.152Z,1.57
2018-09-14T11:10:57.182Z,2.65
2018-09-14T11:13:31.099Z,1.80
2018-09-14T11:16:03.892Z,2.12
2018-09-14T11:18:36.926Z,1.80
2018-09-14T11:21:09.639Z,1.32
2018-09-14T11:23:43.271Z,1.85
2018-09-14T11:26:16.071Z,1.90
2018-09-14T11:28:48.878Z,1.55
2018-09-14T11:31:26.954Z,2.27
2018-09-14T11:33:59.754Z,1.70
2018-09-14T11:36:32.472Z,1.57
2018-09-14T11:39:07.889Z,2.40
2018-09-14T11:41:40.698Z,2.27
2018-09-14T11:44:13.873Z,2.22
2018-09-14T11:46:46.844Z,1.90
2018-09-14T11:49:19.741Z,1.65
2018-09-14T11:51:52.630Z,1.98
2018-09-14T11:54:25.459Z,2.08
2018-09-14T11:56:58.248Z,2.22
2018-09-14T11:59:31.247Z,2.15
2018-09-14T12:02:04.681Z,1.72
2018-09-14T12:04:37.654Z,2.05
2018-09-14T12:07:10.582Z,1.57
2018-09-14T12:09:43.344Z,2.47
2018-09-14T12:12:16.360Z,1.90
2018-09-14T12:14:49.156Z,1.90
2018-09-14T12:17:22.734Z,2.10
2018-09-14T12:19:55.889Z,2.02
2018-09-14T12:22:28.827Z,2.10
2018-09-14T12:25:01.654Z,2.10
2018-09-14T12:27:35.640Z,2.17
2018-09-14T12:30:08.410Z,2.20
2018-09-14T12:32:41.304Z,1.95
2018-09-14T12:35:17.154Z,2.33
2018-09-14T12:37:50.048Z,1.82
2018-09-14T12:40:22.851Z,2.20
2018-09-14T12:42:56.147Z,2.58
2018-09-14T12:45:29.567Z,2.08
2018-09-14T12:48:02.861Z,3.25
2018-09-14T12:50:35.743Z,2.47
2018-09-14T12:53:08.757Z,2.12
2018-09-14T12:55:41.590Z,2.27
2018-09-14T12:58:14.388Z,1.98
2018-09-14T13:00:47.220Z,1.87
2018-09-14T13:38:08.886Z,2.40
2018-09-14T13:40:41.648Z,2.83
2018-09-14T13:43:14.454Z,1.60
2018-09-14T13:45:47.128Z,2.20
2018-09-14T13:48:19.730Z,2.35
2018-09-14T13:50:52.366Z,2.72
2018-09-14T13:53:25.012Z,2.22
2018-09-14T13:55:57.661Z,2.40
2018-09-14T13:58:30.324Z,2.10
2018-09-14T14:01:03.444Z,2.15
2018-09-14T14:03:36.076Z,2.35
2018-09-14T14:06:08.685Z,2.25
2018-09-14T14:08:41.596Z,1.82
2018-09-14T14:11:14.291Z,2.20
2018-09-14T14:13:46.980Z,1.98
2018-09-14T14:16:19.787Z,2.10
2018-09-14T14:18:52.659Z,2.52
2018-09-14T14:21:25.310Z,1.92
2018-09-14T14:23:58.520Z,2.10
2018-09-14T14:26:31.456Z,2.52
2018-09-14T14:29:04.608Z,2.47
2018-09-14T14:31:37.204Z,2.67
2018-09-14T14:34:09.844Z,2.70
2018-09-14T14:36:42.503Z,2.15
2018-09-14T14:39:15.197Z,2.05
2018-09-14T14:41:47.960Z,2.05
2018-09-14T14:44:21.054Z,2.10
2018-09-14T14:46:53.673Z,2.60
2018-09-14T14:49:26.374Z,2.72
2018-09-14T14:51:59.030Z,2.37
2018-09-14T14:54:31.702Z,3.12
2018-09-14T14:57:05.457Z,2.40
2018-09-14T14:59:38.087Z,2.60
2018-09-14T15:02:11.717Z,2.92
2018-09-14T15:04:44.485Z,2.30
2018-09-14T15:07:18.426Z,2.35
2018-09-14T15:09:52.941Z,2.70
2018-09-14T15:12:27.218Z,2.00
2018-09-14T15:15:03.068Z,2.30
2018-09-14T15:17:37.469Z,2.58
2018-09-14T15:20:11.709Z,3.00
2018-09-14T15:22:45.649Z,2.50
2018-09-14T15:25:21.070Z,2.60
2018-09-14T15:27:55.124Z,2.27
2018-09-14T15:30:30.950Z,2.27
2018-09-14T15:33:05.934Z,1.90
2018-09-14T15:35:39.148Z,2.60
2018-09-14T15:38:14.355Z,3.77
2018-09-14T15:40:49.695Z,2.72
2018-09-14T15:43:27.739Z,3.22
2018-09-14T15:46:01.557Z,1.50
2018-09-14T15:48:36.422Z,1.37
2018-09-14T15:51:09.487Z,2.00
2018-09-14T15:53:42.623Z,2.10
2018-09-14T15:56:16.092Z,3.43
2018-09-14T15:58:49.426Z,2.37
2018-09-14T16:01:23.090Z,2.60
2018-09-14T16:03:59.638Z,3.17
2018-09-14T16:06:33.230Z,4.27
2018-09-14T16:09:09.166Z,3.33
2018-09-14T16:11:45.005Z,3.57
2018-09-14T16:14:22.755Z,4.63
2018-09-14T16:17:00.644Z,4.17
2018-09-14T16:19:34.213Z,4.70
2018-09-14T16:24:54.560Z,5.60
2018-09-14T16:27:30.690Z,6.10
2018-09-14T16:30:04.773Z,5.13
2018-09-14T16:32:39.583Z,4.20
2018-09-14T16:35:14.190Z,4.33
2018-09-14T16:37:53.144Z,4.97
2018-09-14T16:40:28.275Z,4.07
2018-09-14T16:43:01.517Z,4.70
2018-09-14T16:45:45.544Z,4.33
2018-09-14T16:48:19.684Z,4.33
2018-09-14T16:50:53.389Z,4.30
2018-09-14T16:53:26.777Z,4.63
2018-09-14T16:56:00.030Z,3.37
2018-09-14T16:58:32.960Z,4.17
2018-09-14T17:01:06.248Z,4.17
2018-09-14T17:03:41.967Z,3.20
2018-09-14T17:06:23.815Z,3.67
2018-09-14T17:08:56.904Z,3.00
2018-09-14T17:11:33.171Z,3.17
2018-09-14T17:14:07.780Z,2.83
2018-09-14T17:16:41.207Z,2.80
2018-09-14T17:19:15.244Z,2.70
2018-09-14T17:21:48.796Z,2.80
2018-09-14T17:24:21.772Z,2.60
2018-09-14T17:26:55.683Z,2.50
2018-09-14T17:32:14.727Z,3.63
2018-09-14T17:34:47.461Z,3.20
2018-09-14T17:37:21.676Z,3.40
2018-09-14T17:39:56.417Z,3.63
2018-09-14T17:42:30.078Z,3.30
2018-09-14T17:45:03.832Z,3.00
2018-09-14T17:47:37.282Z,3.90
2018-09-14T17:50:11.400Z,3.17
2018-09-14T17:52:44.455Z,2.33
2018-09-14T17:55:17.650Z,2.80
2018-09-14T17:57:51.221Z,2.67
2018-09-14T18:00:29.617Z,3.00
2018-09-14T18:03:06.405Z,3.47
2018-09-14T18:05:41.268Z,2.97
2018-09-14T18:08:13.964Z,2.70
2018-09-14T18:10:52.858Z,3.20
2018-09-14T18:13:29.982Z,2.73
2018-09-14T18:16:03.702Z,2.27
2018-09-14T18:18:37.073Z,2.07
2018-09-14T18:21:10.297Z,2.77
2018-09-14T18:23:43.560Z,3.00
2018-09-14T18:26:16.952Z,3.50
2018-09-14T18:28:57.653Z,4.13
2018-09-14T18:31:31.483Z,4.43
2018-09-14T18:34:05.914Z,4.73
2018-09-14T18:36:39.044Z,5.53
2018-09-14T18:39:14.135Z,5.27
2018-09-14T18:41:47.876Z,6.10
2018-09-14T18:44:23.391Z,5.97
2018-09-14T18:46:57.174Z,4.97
2018-09-14T18:49:31.784Z,5.30
2018-09-14T18:52:07.795Z,6.27
2018-09-14T18:54:47.133Z,5.53
2018-09-14T18:57:23.883Z,5.50
2018-09-14T19:00:01.128Z,6.50
